WetterOnline ( https://www.wetteronline.de )

Wetter aktuell Klein Heikeland

Aktuelles Wetter: Norderney (16m)

6-stündlich | Neueste Meldungen
Ortszeit Temperatur Wetter
Di, 27.10. 1:00 9.4° C fast wolkenlos
Mo, 26.10. 19:00 10.0° C fast wolkenlos
Mo, 26.10. 13:00 11.0° C bedeckt
Mo, 26.10. 7:00 9.8° C bewölkt
Mo, 26.10. 1:00 9.8° C wolkig
So, 25.10. 19:00 11.6° C bedeckt
So, 25.10. 13:00 12.4° C wolkig
So, 25.10. 7:00 11.0° C Sprühregen
Ortszeit Temperatur Wetter
Di, 27.10. 1:30 9.4° C wolkenlos
Di, 27.10. 1:20 9.4° C wolkenlos
Di, 27.10. 1:10 9.2° C wolkenlos
Di, 27.10. 1:00 9.4° C fast wolkenlos
Di, 27.10. 0:50 9.4° C fast wolkenlos
Di, 27.10. 0:40 9.4° C leicht bewölkt
Di, 27.10. 0:30 9.4° C wolkig
Di, 27.10. 0:00 9.8° C wolkig
Mo, 26.10. 23:30 9.9° C wolkig
Mo, 26.10. 23:00 9.8° C leicht bewölkt
Mo, 26.10. 22:30 9.7° C wolkig
Ortszeit Relative Feuchte Sichtweite
Di, 27.10. 1:00 84% 40 km
Mo, 26.10. 19:00 78% 55 km
Mo, 26.10. 13:00 74% 40 km
Mo, 26.10. 7:00 90% 35 km
Mo, 26.10. 1:00 92% 30 km
So, 25.10. 19:00 89% 40 km
So, 25.10. 13:00 83% 50 km
So, 25.10. 7:00 93% 8 km
Ortszeit Relative Feuchte Sichtweite
Di, 27.10. 1:30 86% 35 km
Di, 27.10. 1:20 86% -
Di, 27.10. 1:10 86% -
Di, 27.10. 1:00 84% 40 km
Di, 27.10. 0:50 84% -
Di, 27.10. 0:40 83% -
Di, 27.10. 0:30 84% 50 km
Di, 27.10. 0:00 84% 30 km
Mo, 26.10. 23:30 83% 35 km
Mo, 26.10. 23:00 82% 40 km
Mo, 26.10. 22:30 81% 40 km
Ortszeit Niederschlagsmenge Niederschlagsart
Di, 27.10. 1:00 0.1 l/m2 in 6 Std. Regen
Mo, 26.10. 19:00 0.0 l/m2 in 12 Std. -
Mo, 26.10. 13:00 0.0 l/m2 in 6 Std. -
Mo, 26.10. 7:00 0.1 l/m2 in 12 Std. Regen
Mo, 26.10. 1:00 0.0 l/m2 in 6 Std. -
So, 25.10. 19:00 1 l/m2 in 12 Std. Regen
So, 25.10. 13:00 1 l/m2 in 6 Std. Regen
So, 25.10. 7:00 2 l/m2 in 12 Std. Regenschauer
Ortszeit Niederschlagsmenge Niederschlagsart
Di, 27.10. 1:30 0.0 l/m2 in 1 Std. -
Di, 27.10. 1:20 keine Meldung -
Di, 27.10. 1:10 keine Meldung -
Di, 27.10. 1:00 0.1 l/m2 in 1 Std. Regen
Di, 27.10. 0:50 keine Meldung -
Di, 27.10. 0:40 keine Meldung -
Di, 27.10. 0:30 0.1 l/m2 in 1 Std. Schneeregen
Di, 27.10. 0:00 0.1 l/m2 in 1 Std. Regen
Mo, 26.10. 23:30 0.1 l/m2 in 1 Std. Schneeregen
Mo, 26.10. 23:00 0.0 l/m2 in 1 Std. -
Mo, 26.10. 22:30 0.0 l/m2 in 1 Std. -
Ortszeit Stärke Spitze Richtung
km/h Bft. km/h Grad Sektor
Di, 27.10. 1:00 22 4 50 200° S
Mo, 26.10. 19:00 22 4 41 180° S
Mo, 26.10. 13:00 24 4 43 200° S
Mo, 26.10. 7:00 22 4 36 180° S
Mo, 26.10. 1:00 20 4 33 170° S
So, 25.10. 19:00 20 4 37 180° S
So, 25.10. 13:00 22 4 46 200° S
So, 25.10. 7:00 28 4 63 220° SW
Ortszeit Stärke Spitze Richtung
km/h Bft. km/h Grad Sektor
Di, 27.10. 1:30 22 4 43 190° S
Di, 27.10. 1:20 22 4 - 190° S
Di, 27.10. 1:10 24 4 - 190° S
Di, 27.10. 1:00 22 4 43 200° S
Di, 27.10. 0:50 22 4 - 200° S
Di, 27.10. 0:40 22 4 - 200° S
Di, 27.10. 0:30 24 4 44 190° S
Di, 27.10. 0:00 28 4 50 190° S
Mo, 26.10. 23:30 26 4 46 190° S
Mo, 26.10. 23:00 28 4 46 190° S
Mo, 26.10. 22:30 28 4 39 180° S
Ortszeit Untergrenze Bedeckung Gattung
total tief tief mittel hoch
Di, 27.10. 1:00 600 m 1/8 1/8 - - -
Mo, 26.10. 19:00 1800 m 1/8 1/8 - - -
Mo, 26.10. 13:00 750 m 8/8 8/8 - - -
Mo, 26.10. 7:00 420 m 8/8 7/8 - - -
Mo, 26.10. 1:00 390 m 8/8 1/8 - - -
So, 25.10. 19:00 5400 m 8/8 8/8 - - -
So, 25.10. 13:00 570 m 8/8 3/8 - - -
So, 25.10. 7:00 510 m 8/8 8/8 - - -
Ortszeit Bedeckungsgrad in Achtel und Wolkenuntergrenze
Di, 27.10. 1:30 1(3900m)
Di, 27.10. 1:20 keine Wolken
Di, 27.10. 1:10 keine Wolken
Di, 27.10. 1:00 1(600m)
Di, 27.10. 0:50 1(600m)
Di, 27.10. 0:40 1(3300m) 2(4200m)
Di, 27.10. 0:30 2(1500m) 7(3300m) 8(4200m)
Di, 27.10. 0:00 1(1410m) 4(2400m) 6(2700m)
Mo, 26.10. 23:30 3(480m) 6(3300m) 7(6000m)
Mo, 26.10. 23:00 5(2400m) 3(2400m) 6(6000m)
Mo, 26.10. 22:30 1(960m) 3(1500m) 7(2400m)
Ortszeit Luftdruck NN (hPa) Tendenz (hPa in 3 Std.)
Di, 27.10. 1:00 999 - 0,1
Mo, 26.10. 19:00 999 0,0
Mo, 26.10. 13:00 999 + 0,4
Mo, 26.10. 7:00 998 - 0,3
Mo, 26.10. 1:00 1000 0,0
So, 25.10. 19:00 1000 + 0,3
So, 25.10. 13:00 1000 + 0,9
So, 25.10. 7:00 1000 + 0,3
Ortszeit Luftdruck NN (hPa) Tendenz (hPa in 3 Std.)
Di, 27.10. 1:30 999 - 0,1
Di, 27.10. 1:20 999 keine Meldung
Di, 27.10. 1:10 999 keine Meldung
Di, 27.10. 1:00 999 - 0,1
Di, 27.10. 0:50 999 keine Meldung
Di, 27.10. 0:40 999 keine Meldung
Di, 27.10. 0:30 999 - 0,1
Di, 27.10. 0:00 999 - 0,3
Mo, 26.10. 23:30 999 0,0
Mo, 26.10. 23:00 999 + 0,2
Mo, 26.10. 22:30 999 + 0,4
Ortszeit Schneehöhe (cm)
Di, 27.10. 1:00 0
Mo, 26.10. 19:00 0
Mo, 26.10. 13:00 0
Mo, 26.10. 7:00 0
Mo, 26.10. 1:00 0
So, 25.10. 19:00 0
So, 25.10. 13:00 0
So, 25.10. 7:00 0
Ortszeit Schneehöhe (cm)
Di, 27.10. 1:30 0
Di, 27.10. 1:20 0
Di, 27.10. 1:10 0
Di, 27.10. 1:00 0
Di, 27.10. 0:50 0
Di, 27.10. 0:40 0
Di, 27.10. 0:30 0
Di, 27.10. 0:00 0
Mo, 26.10. 23:30 0
Mo, 26.10. 23:00 0
Mo, 26.10. 22:30 0
Link zu dieser Seite / Seite empfehlen

Das Wetter in ...